WIIIWAAA

Guest
Details From WIII - Jakarta Sukarno-hatta Intl
To WAAA - Ujung Pandang Hasanuddin
Flight Number -
Tags Generated
Created
Modified
Stats Distance 775 nm / 1,434 km
Max Altitude 0 ft / 0 m
Waypoints 3
Social Downloads 3
Likes 0
Share VATSIM

Download

Looking for another format? Having issues loading an existing format? Contact us
Advertisement - Login to hide

Notes

Generated

Route

WIII MKS WAAA

ID Type Via Altitude Latitude Longitude Leg Dist Tot Dist Heading (true) Name
O WIII APT - 0 ft / 0 m -6.12106˚ 106.63876˚ - 0 nm - -
MKS VOR - 0 ft / 0 m -5.03781˚ 119.52619˚ 773 nm 773 nm 86° / 85° MAKASSAR VOR-DME
O WAAA APT - 0 ft / 0 m -5.05429˚ 119.54548˚ 1 nm 774 nm 131° / 131° -

Altitude Profile

Advertisement - Login to hide

Weather


0- 5 10 15 20 25 30 35+ Temperature / ° C

Clouds and Precipitation
Forecast for 2017-12-11 06:00 UTC. Updated an hour ago

Ground ~20,000 ft ~40,000 ft Winds

WIII

Details ICAO WIII (CGK)
Name Jakarta Sukarno-Hatta Intl
Region Indonesia
Timezone Asia/Jakarta (UTC+7.0)
Stats Elevation 34 ft / 10 m (AMSL)
Location -6.125743° 106.656405°
Runways 2
Magnetic Variation 0.630° E

METAR

WIII 110400Z 27009KT 9999 FEW021 31/24 Q1010 NOSIG

Decode

TAF

TAF WIII 101700Z 1018/1200 22005KT 6000 FEW020 BECMG 1102/1104 25010KT

Decode

Departure Runways

ID Width Length Bearing (true) Bearing (mag) Surface Threshold Offset Overrun Length
07L 197 ft / 60 m 11,823 ft / 3,604 m 68.13° 67.50° Concrete 0 ft / 0 m 200 ft / 61 m
07R 197 ft / 60 m 12,024 ft / 3,665 m 68.12° 67.49° Concrete 0 ft / 0 m 200 ft / 61 m
25L 197 ft / 60 m 12,024 ft / 3,665 m 248.12° 247.49° Concrete 0 ft / 0 m 200 ft / 61 m
25R 197 ft / 60 m 11,823 ft / 3,604 m 248.12° 247.49° Concrete 0 ft / 0 m 200 ft / 61 m

WAAA

Details ICAO WAAA (UPG)
Name Ujung Pandang Hasanuddin
Region Indonesia
Timezone Asia/Makassar (UTC+8.0)
Stats Elevation 47 ft / 14 m (AMSL)
Location -5.061630° 119.554043°
Runways 1
Magnetic Variation 0.852° E

METAR

WAAA 110400Z VRB05KT 9999 FEW019 31/24 Q1010 NOSIG

Decode

TAF

Not found

Destination Runways

ID Width Length Bearing (true) Bearing (mag) Surface Threshold Offset Overrun Length
13 148 ft / 45 m 8,214 ft / 2,504 m 130.71° 129.86° Asphalt 0 ft / 0 m 200 ft / 61 m
31 148 ft / 45 m 8,214 ft / 2,504 m 310.71° 309.86° Asphalt 0 ft / 0 m 200 ft / 61 m

Approach Navaids

Runway Type Ident Frequency Range Bearing (true) Bearing (mag) Slope Elevation
13 Localiser IUPG 111.30 MHz 18 nm / 33 km 130.67° 129.82° - 36 ft / 11 m (AMSL)
13 Glidescope IUPG 111.30 MHz 10 nm / 19 km 130.71° 129.86° 2.90° 44 ft / 13 m (AMSL)
13 DME IUPG 111.30 MHz 18 nm / 33 km - - - 36 ft / 11 m (AMSL)
31 Localiser IMKS 111.30 MHz 18 nm / 33 km 310.71° 309.86° - 44 ft / 13 m (AMSL)
31 Glidescope IMKS 111.30 MHz 10 nm / 19 km 310.71° 309.86° 3.00° 36 ft / 11 m (AMSL)
31 DME IMKS 111.30 MHz 18 nm / 33 km - - - 36 ft / 11 m (AMSL)

Popular Alternatives